Time;durP1;ratioP1;P1;durP2;ratioP2;P2;SDS_P1;SDS_P2;PMS_P1;PMS_P2;Temp;Humidity;BMP_temperature;BMP_pressure;BME280_temperature;BME280_humidity;BME280_pressure;Samples;Min_cycle;Max_cycle;Signal;HPM_P1;HPM_P2
2023/12/08 00:02:04;;;;;;;126.30;47.70;;;;;;;0.99;99.33;99468.27;108058;1294;23021;-51
2023/12/08 00:04:29;;;;;;;121.10;44.70;;;;;;;0.91;99.30;99463.36;107841;1307;22260;-56
2023/12/08 00:06:55;;;;;;;119.50;45.10;;;;;;;0.87;99.37;99462.73;108039;1307;22203;-57
2023/12/08 00:09:20;;;;;;;117.70;45.20;;;;;;;0.84;99.54;99464.67;108036;1307;22396;-53
2023/12/08 00:11:46;;;;;;;125.30;46.50;;;;;;;0.83;99.65;99468.82;108046;1307;22218;-53
2023/12/08 00:14:11;;;;;;;130.20;48.00;;;;;;;0.81;99.83;99468.67;108062;1307;22237;-50
2023/12/08 00:16:37;;;;;;;124.80;47.90;;;;;;;0.80;99.96;99472.49;108044;1307;22311;-56
2023/12/08 00:19:02;;;;;;;131.00;47.90;;;;;;;0.78;100.00;99473.89;108044;1307;22483;-56
2023/12/08 00:21:27;;;;;;;124.90;46.30;;;;;;;0.78;100.00;99466.99;108031;1307;22256;-55
2023/12/08 00:23:53;;;;;;;123.60;46.30;;;;;;;0.73;100.00;99466.70;108043;1307;22434;-55
2023/12/08 00:26:18;;;;;;;138.40;49.20;;;;;;;0.67;100.00;99474.54;108037;1307;22189;-55
2023/12/08 00:28:44;;;;;;;120.40;46.70;;;;;;;0.65;100.00;99479.23;108015;1307;22227;-54
2023/12/08 00:31:10;;;;;;;99.20;40.90;;;;;;;0.62;99.96;99476.66;108028;1299;22228;-55
2023/12/08 00:33:36;;;;;;;101.20;41.20;;;;;;;0.61;99.78;99476.69;108053;1307;23039;-54
2023/12/08 00:36:10;;;;;;;95.30;40.30;;;;;;;0.64;99.82;99477.69;108034;1306;22217;-52
2023/12/08 00:38:35;;;;;;;92.40;40.90;;;;;;;0.70;99.64;99475.55;108034;1307;22475;-54
2023/12/08 00:41:01;;;;;;;99.50;41.30;;;;;;;0.73;99.44;99473.95;108013;1307;22248;-56
2023/12/08 00:43:26;;;;;;;99.40;42.10;;;;;;;0.78;99.35;99477.69;108027;1306;23000;-55
2023/12/08 00:45:51;;;;;;;103.30;41.80;;;;;;;0.84;99.34;99477.45;108040;1306;22972;-50
2023/12/08 00:48:17;;;;;;;93.80;41.30;;;;;;;0.89;98.88;99479.45;108037;1307;22969;-50
2023/12/08 00:50:42;;;;;;;93.10;40.20;;;;;;;0.93;98.73;99479.39;108035;1307;22256;-54
2023/12/08 00:53:07;;;;;;;90.30;40.10;;;;;;;0.97;98.45;99482.27;108024;1307;22406;-55
2023/12/08 00:55:33;;;;;;;92.20;39.90;;;;;;;1.00;98.40;99484.48;108022;1307;23110;-55
2023/12/08 00:57:58;;;;;;;97.70;43.70;;;;;;;1.04;98.18;99485.12;108045;1306;22226;-55
2023/12/08 01:00:23;;;;;;;103.40;44.00;;;;;;;1.06;97.87;99491.81;108024;1307;22395;-54
2023/12/08 01:02:49;;;;;;;98.80;42.50;;;;;;;1.04;97.71;99488.39;108050;1306;22238;-58
2023/12/08 01:05:16;;;;;;;103.20;43.50;;;;;;;1.02;97.57;99487.03;108030;1306;22235;-55
2023/12/08 01:07:41;;;;;;;100.50;44.50;;;;;;;0.99;97.44;99491.58;108040;1307;23373;-56
2023/12/08 01:10:07;;;;;;;103.90;43.90;;;;;;;0.92;97.35;99493.39;108029;1307;22249;-56
2023/12/08 01:12:32;;;;;;;92.10;42.70;;;;;;;0.86;97.26;99489.84;108043;1302;22217;-54
2023/12/08 01:14:58;;;;;;;100.40;43.70;;;;;;;0.80;97.36;99488.02;108053;1307;23420;-58
2023/12/08 01:17:23;;;;;;;111.70;44.60;;;;;;;0.78;97.67;99492.86;108028;1307;22296;-55
2023/12/08 01:19:48;;;;;;;100.30;44.20;;;;;;;0.74;97.77;99491.20;108030;1307;22534;-57
2023/12/08 01:22:14;;;;;;;103.40;46.80;;;;;;;0.72;98.00;99486.73;108034;1306;22467;-57
2023/12/08 01:24:40;;;;;;;101.30;44.70;;;;;;;0.68;97.77;99483.15;108044;1307;22392;-54
2023/12/08 01:27:05;;;;;;;104.00;45.30;;;;;;;0.67;98.18;99486.80;108018;1306;22173;-51
2023/12/08 01:29:30;;;;;;;109.60;45.90;;;;;;;0.65;98.18;99486.82;108028;1307;22930;-54
2023/12/08 01:31:56;;;;;;;114.20;46.00;;;;;;;0.60;98.19;99488.09;108034;1307;22430;-54
2023/12/08 01:34:21;;;;;;;109.60;44.60;;;;;;;0.54;98.20;99482.29;108044;1307;22186;-59
2023/12/08 01:36:46;;;;;;;111.90;48.50;;;;;;;0.51;98.44;99476.64;108037;1307;23235;-55
2023/12/08 01:39:12;;;;;;;113.60;45.80;;;;;;;0.53;98.65;99476.27;108040;1306;22269;-56
2023/12/08 01:41:38;;;;;;;116.40;46.60;;;;;;;0.56;98.42;99479.67;108050;1307;22242;-53
2023/12/08 01:44:03;;;;;;;109.80;47.20;;;;;;;0.59;98.44;99482.41;108040;1307;22256;-55
2023/12/08 01:46:30;;;;;;;111.00;45.40;;;;;;;0.62;98.42;99487.03;108049;1307;22921;-55
2023/12/08 01:48:55;;;;;;;118.70;46.50;;;;;;;0.65;98.37;99485.61;108021;1307;22337;-56
2023/12/08 01:51:21;;;;;;;119.30;45.90;;;;;;;0.67;98.19;99483.16;108023;1306;23210;-55
2023/12/08 01:53:46;;;;;;;112.10;46.10;;;;;;;0.68;98.20;99490.40;108029;1307;22224;-55
2023/12/08 01:56:13;;;;;;;116.40;44.80;;;;;;;0.71;98.10;99488.47;108024;1307;22497;-57
2023/12/08 01:58:41;;;;;;;117.30;47.30;;;;;;;0.70;97.90;99491.41;108016;1307;22461;-57
2023/12/08 02:01:07;;;;;;;110.60;45.10;;;;;;;0.72;97.86;99489.33;108033;1307;22900;-55
2023/12/08 02:03:33;;;;;;;116.70;46.60;;;;;;;0.72;97.77;99483.80;108027;1306;22211;-55
2023/12/08 02:05:59;;;;;;;117.40;46.90;;;;;;;0.74;97.74;99481.53;108021;1307;22408;-56
2023/12/08 02:08:25;;;;;;;110.20;46.30;;;;;;;0.78;97.88;99486.83;108037;1306;22257;-54
2023/12/08 02:10:50;;;;;;;111.80;46.80;;;;;;;0.78;97.59;99486.31;107988;1307;22978;-57
2023/12/08 02:13:16;;;;;;;120.10;46.60;;;;;;;0.80;97.54;99490.10;107911;1307;22220;-57
2023/12/08 02:15:45;;;;;;;128.50;48.50;;;;;;;0.78;97.68;99489.95;107914;1308;22198;-56
2023/12/08 02:18:13;;;;;;;129.10;48.30;;;;;;;0.77;97.78;99499.10;107911;1307;22323;-57
2023/12/08 02:20:39;;;;;;;119.20;47.60;;;;;;;0.76;97.82;99501.35;107911;1308;23089;-57
2023/12/08 02:23:06;;;;;;;119.90;46.40;;;;;;;0.75;97.88;99499.13;107933;1307;22236;-57
2023/12/08 02:25:31;;;;;;;129.60;48.60;;;;;;;0.72;97.91;99496.23;108041;1307;23066;-58
2023/12/08 02:27:57;;;;;;;127.10;47.90;;;;;;;0.69;98.06;99494.54;107821;1306;22353;-58
2023/12/08 02:30:23;;;;;;;118.10;45.70;;;;;;;0.66;98.05;99490.09;108032;1307;22235;-57
2023/12/08 02:33:13;;;;;;;124.70;48.30;;;;;;;0.63;98.01;99486.49;108027;1307;22206;-55
2023/12/08 02:35:42;;;;;;;123.20;48.60;;;;;;;0.60;98.27;99479.80;108021;1307;22250;-56
2023/12/08 02:38:12;;;;;;;121.70;49.10;;;;;;;0.58;98.57;99482.92;108025;1307;23148;-56
2023/12/08 02:43:36;;;;;;;133.60;50.00;;;;;;;0.60;98.78;99489.11;106888;1305;545499;-53
2023/12/08 02:46:02;;;;;;;134.60;50.90;;;;;;;0.54;98.86;99488.66;107338;1313;25209;-55
2023/12/08 02:48:27;;;;;;;135.60;50.20;;;;;;;0.48;99.02;99484.42;107391;1305;22357;-53
2023/12/08 02:50:52;;;;;;;139.90;51.00;;;;;;;0.45;99.14;99478.42;107394;1313;23140;-56
2023/12/08 02:53:18;;;;;;;131.00;48.90;;;;;;;0.45;99.23;99476.36;107386;1308;22452;-53
2023/12/08 02:55:43;;;;;;;140.70;50.70;;;;;;;0.44;99.13;99473.59;107464;1312;22234;-57
2023/12/08 02:58:09;;;;;;;139.90;49.90;;;;;;;0.47;99.18;99477.70;107568;1309;154329;-55
2023/12/08 03:00:34;;;;;;;142.50;51.70;;;;;;;0.49;99.36;99471.83;107708;1309;22653;-55
2023/12/08 03:03:00;;;;;;;137.60;49.50;;;;;;;0.54;99.24;99472.97;107687;1309;22957;-56
2023/12/08 03:05:25;;;;;;;131.10;48.00;;;;;;;0.57;99.17;99469.66;107676;1309;22239;-55
2023/12/08 03:07:50;;;;;;;132.50;50.70;;;;;;;0.60;99.08;99469.11;107693;1309;22331;-53
2023/12/08 03:10:16;;;;;;;135.30;49.70;;;;;;;0.63;99.10;99472.17;107692;1309;22203;-56
2023/12/08 03:12:41;;;;;;;123.90;48.10;;;;;;;0.65;98.79;99474.57;107683;1302;22424;-54
2023/12/08 03:15:07;;;;;;;122.30;47.80;;;;;;;0.65;98.60;99476.13;107698;1309;22327;-54
2023/12/08 03:17:34;;;;;;;125.50;47.40;;;;;;;0.67;98.54;99471.61;107713;1306;22934;-53
2023/12/08 03:19:59;;;;;;;119.80;45.60;;;;;;;0.67;98.42;99468.50;107718;1309;22325;-57
2023/12/08 03:22:24;;;;;;;129.60;48.90;;;;;;;0.68;98.16;99467.45;107704;1309;22947;-52
2023/12/08 03:24:50;;;;;;;130.10;46.90;;;;;;;0.67;98.08;99461.95;107706;1309;22281;-57
2023/12/08 03:27:15;;;;;;;117.00;44.70;;;;;;;0.68;98.17;99464.88;107693;1309;22394;-57
2023/12/08 03:29:41;;;;;;;119.30;46.10;;;;;;;0.70;98.11;99462.41;107701;1309;23310;-57
2023/12/08 03:32:07;;;;;;;130.20;49.40;;;;;;;0.71;97.90;99461.55;107708;1309;22266;-56
2023/12/08 03:34:33;;;;;;;125.60;48.30;;;;;;;0.72;97.81;99463.10;107703;1309;22891;-55
2023/12/08 03:36:58;;;;;;;118.70;48.10;;;;;;;0.71;97.87;99459.13;107729;1309;22931;-55
2023/12/08 03:39:24;;;;;;;120.30;46.30;;;;;;;0.71;97.70;99458.95;107679;1309;22237;-55
2023/12/08 03:41:49;;;;;;;123.50;46.30;;;;;;;0.69;97.72;99457.77;107707;1309;23037;-55
2023/12/08 03:44:15;;;;;;;124.10;46.00;;;;;;;0.71;97.98;99457.59;107713;1309;22305;-58
2023/12/08 03:46:43;;;;;;;112.60;43.50;;;;;;;0.73;97.93;99456.54;107702;1309;22439;-54
2023/12/08 03:49:09;;;;;;;114.10;45.10;;;;;;;0.71;97.82;99457.77;107749;1309;22214;-52
2023/12/08 03:51:34;;;;;;;122.50;46.00;;;;;;;0.70;97.88;99451.91;107697;1309;22866;-56
2023/12/08 03:54:00;;;;;;;126.20;46.70;;;;;;;0.71;97.84;99450.15;107712;1309;22991;-54
2023/12/08 03:56:25;;;;;;;121.80;46.40;;;;;;;0.73;97.64;99448.59;107993;1307;22436;-56
2023/12/08 03:58:51;;;;;;;111.70;44.70;;;;;;;0.75;97.63;99444.42;107981;1307;22225;-54
2023/12/08 04:01:17;;;;;;;113.60;46.30;;;;;;;0.73;97.49;99438.76;108004;1307;23156;-54
2023/12/08 04:03:43;;;;;;;120.00;45.50;;;;;;;0.73;97.53;99437.70;107999;1307;22244;-55
2023/12/08 04:06:08;;;;;;;112.80;43.00;;;;;;;0.71;97.34;99438.25;107996;1307;22876;-56
2023/12/08 04:08:33;;;;;;;114.70;45.70;;;;;;;0.71;97.40;99435.67;108017;1307;22486;-56
2023/12/08 04:10:59;;;;;;;116.60;45.30;;;;;;;0.71;97.40;99431.52;107995;1307;22512;-57
2023/12/08 04:13:24;;;;;;;119.80;45.40;;;;;;;0.70;97.53;99428.26;107992;1307;22423;-55
2023/12/08 04:15:50;;;;;;;123.70;46.90;;;;;;;0.71;97.61;99426.18;108017;1307;22426;-57
2023/12/08 04:18:15;;;;;;;114.20;43.20;;;;;;;0.70;97.65;99428.95;108005;1295;23017;-56
2023/12/08 04:20:40;;;;;;;125.70;48.30;;;;;;;0.68;97.59;99422.94;108024;1306;22304;-56
2023/12/08 04:23:06;;;;;;;137.30;47.70;;;;;;;0.66;97.66;99423.65;108039;1305;22243;-49
2023/12/08 04:25:31;;;;;;;128.00;47.80;;;;;;;0.66;97.65;99419.34;108059;1306;22235;-51
2023/12/08 04:27:56;;;;;;;123.50;46.60;;;;;;;0.64;97.79;99415.40;108065;1306;22207;-57
2023/12/08 04:30:22;;;;;;;118.50;45.50;;;;;;;0.63;97.89;99417.15;108051;1306;22983;-55
2023/12/08 04:32:47;;;;;;;126.80;46.60;;;;;;;0.65;97.93;99417.45;108067;1306;22272;-57
2023/12/08 04:35:13;;;;;;;117.70;45.40;;;;;;;0.68;97.81;99416.04;108081;1306;22249;-54
2023/12/08 04:37:38;;;;;;;119.00;44.70;;;;;;;0.69;97.61;99413.09;108062;1306;22370;-55
2023/12/08 04:40:04;;;;;;;123.60;46.40;;;;;;;0.68;97.59;99413.10;108052;1306;22704;-57
2023/12/08 04:42:29;;;;;;;137.90;48.20;;;;;;;0.67;97.64;99420.36;108071;1306;23054;-55
2023/12/08 04:44:55;;;;;;;137.40;47.30;;;;;;;0.69;97.68;99422.24;108033;1306;22166;-58
2023/12/08 04:47:20;;;;;;;129.00;48.70;;;;;;;0.66;97.68;99424.34;108047;1306;22222;-56
2023/12/08 04:49:45;;;;;;;157.30;57.10;;;;;;;0.63;97.61;99419.56;108037;1306;22406;-57
2023/12/08 04:52:11;;;;;;;167.00;58.50;;;;;;;0.57;97.74;99413.77;108051;1306;22291;-56
2023/12/08 04:54:36;;;;;;;135.20;50.80;;;;;;;0.58;98.16;99415.83;108078;1306;22233;-54
2023/12/08 04:57:02;;;;;;;123.10;45.50;;;;;;;0.58;98.21;99414.45;108034;1306;22413;-57
2023/12/08 04:59:27;;;;;;;125.60;45.20;;;;;;;0.53;98.23;99420.02;108057;1306;23124;-57
2023/12/08 05:01:53;;;;;;;117.70;44.50;;;;;;;0.51;98.21;99419.01;108058;1306;23106;-54
2023/12/08 05:04:19;;;;;;;117.10;44.60;;;;;;;0.50;98.45;99419.89;108070;1306;22397;-57
2023/12/08 05:06:44;;;;;;;115.40;43.20;;;;;;;0.48;98.45;99421.64;108058;1306;22269;-53
2023/12/08 05:09:12;;;;;;;125.80;45.30;;;;;;;0.45;98.70;99418.58;108066;1306;22422;-56
2023/12/08 05:11:38;;;;;;;120.80;44.70;;;;;;;0.43;98.85;99416.36;108082;1306;22265;-55
2023/12/08 05:14:03;;;;;;;117.40;43.50;;;;;;;0.44;98.97;99415.98;108066;1306;22228;-51
2023/12/08 05:16:29;;;;;;;110.60;40.90;;;;;;;0.42;99.02;99416.52;108042;1306;22358;-55
2023/12/08 05:18:55;;;;;;;125.10;44.50;;;;;;;0.38;99.07;99416.75;108077;1306;22939;-56
2023/12/08 05:21:20;;;;;;;128.90;46.30;;;;;;;0.38;99.08;99412.44;108049;1306;22463;-55
2023/12/08 05:23:45;;;;;;;130.00;44.80;;;;;;;0.39;99.02;99415.54;108065;1306;22405;-54
2023/12/08 05:26:11;;;;;;;125.00;46.20;;;;;;;0.35;99.04;99416.09;108064;1306;22468;-56
2023/12/08 05:28:36;;;;;;;132.30;45.80;;;;;;;0.36;98.88;99407.64;108035;1306;22605;-56
2023/12/08 05:31:04;;;;;;;123.70;45.40;;;;;;;0.39;99.13;99405.36;108059;1306;22426;-56
2023/12/08 05:33:29;;;;;;;117.00;42.90;;;;;;;0.42;98.97;99403.77;108072;1306;22274;-59
2023/12/08 05:35:55;;;;;;;124.50;47.80;;;;;;;0.44;98.81;99399.61;108082;1306;22239;-57
2023/12/08 05:38:21;;;;;;;124.50;44.40;;;;;;;0.46;98.68;99393.04;108048;1306;23005;-56
2023/12/08 05:40:46;;;;;;;118.80;44.10;;;;;;;0.47;98.53;99389.05;108057;1306;22335;-57
2023/12/08 05:43:12;;;;;;;119.80;42.10;;;;;;;0.49;98.55;99389.38;108067;1306;22395;-55
2023/12/08 05:45:37;;;;;;;112.00;41.80;;;;;;;0.51;98.62;99393.48;108058;1306;22416;-55
2023/12/08 05:48:03;;;;;;;111.80;44.10;;;;;;;0.53;98.48;99393.10;108060;1306;22246;-56
2023/12/08 05:50:28;;;;;;;113.40;41.80;;;;;;;0.58;98.37;99391.51;108060;1306;22279;-55
2023/12/08 05:52:53;;;;;;;114.70;42.80;;;;;;;0.58;98.22;99393.23;108036;1306;22885;-56
2023/12/08 05:55:19;;;;;;;111.80;42.50;;;;;;;0.58;98.22;99397.52;108035;1306;22251;-55
2023/12/08 05:57:44;;;;;;;116.30;42.70;;;;;;;0.60;98.17;99401.48;108065;1306;23127;-57
2023/12/08 06:00:10;;;;;;;118.00;42.50;;;;;;;0.61;98.03;99404.05;108044;1306;22219;-56
2023/12/08 06:02:36;;;;;;;113.60;42.70;;;;;;;0.61;97.97;99406.13;108090;1306;22226;-57
2023/12/08 06:05:02;;;;;;;108.80;42.10;;;;;;;0.63;97.90;99409.36;108051;1306;22201;-57
2023/12/08 06:07:27;;;;;;;110.50;42.70;;;;;;;0.64;98.09;99408.84;108055;1306;22455;-58
2023/12/08 06:09:53;;;;;;;114.80;42.00;;;;;;;0.66;97.96;99404.16;108065;1306;22223;-56
2023/12/08 06:12:18;;;;;;;117.80;42.80;;;;;;;0.70;97.89;99405.14;108058;1306;22529;-58
2023/12/08 06:14:43;;;;;;;124.40;42.70;;;;;;;0.70;97.83;99404.62;108064;1306;22387;-57
2023/12/08 06:17:09;;;;;;;118.50;44.00;;;;;;;0.70;97.85;99404.61;108053;1306;22972;-57
2023/12/08 06:19:34;;;;;;;131.00;45.60;;;;;;;0.69;97.84;99412.05;108073;1306;22248;-57
2023/12/08 06:21:59;;;;;;;124.60;44.80;;;;;;;0.71;97.97;99408.06;108040;1306;22916;-58
2023/12/08 06:24:25;;;;;;;119.60;42.90;;;;;;;0.69;97.91;99405.33;108062;1306;22228;-57
2023/12/08 06:26:50;;;;;;;121.70;44.60;;;;;;;0.69;98.22;99404.82;108046;1306;22323;-58
2023/12/08 06:29:17;;;;;;;120.80;43.10;;;;;;;0.68;98.26;99409.82;108064;1306;22688;-56
2023/12/08 06:31:46;;;;;;;123.30;45.20;;;;;;;0.63;98.38;99412.81;108058;1306;23216;-56
2023/12/08 06:34:12;;;;;;;108.60;40.20;;;;;;;0.55;98.66;99411.54;108064;1306;22226;-56
2023/12/08 06:36:48;;;;;;;119.90;41.60;;;;;;;0.49;98.82;99409.20;108039;1306;22217;-56
2023/12/08 06:39:15;;;;;;;109.30;41.20;;;;;;;0.43;99.22;99411.69;108040;1306;22216;-58
2023/12/08 06:41:41;;;;;;;116.20;42.30;;;;;;;0.41;99.50;99413.44;108033;1306;22498;-55
2023/12/08 06:44:06;;;;;;;119.90;41.70;;;;;;;0.40;99.51;99423.29;108061;1306;22697;-56
2023/12/08 06:46:32;;;;;;;107.70;39.00;;;;;;;0.34;99.78;99428.88;108048;1306;22245;-54
2023/12/08 06:48:58;;;;;;;105.20;40.40;;;;;;;0.31;99.91;99429.42;108054;1306;22236;-56
2023/12/08 06:51:23;;;;;;;118.00;43.10;;;;;;;0.29;100.00;99434.95;107874;1306;22253;-56
2023/12/08 06:53:48;;;;;;;123.90;46.10;;;;;;;0.28;100.00;99431.35;108032;1306;22251;-55
2023/12/08 06:56:15;;;;;;;120.20;45.70;;;;;;;0.25;100.00;99434.31;108037;1306;23204;-57
